createdAt,value
2019-04-07T00:00:12.549Z,100883.20
2019-04-07T00:05:18.351Z,100883.69
2019-04-07T00:10:24.923Z,100881.66
2019-04-07T00:15:30.373Z,100883.31
2019-04-07T00:20:36.369Z,100879.66
2019-04-07T00:25:41.885Z,100868.50
2019-04-07T00:30:47.651Z,100865.16
2019-04-07T00:35:53.321Z,100864.67
2019-04-07T00:40:59.334Z,100862.73
2019-04-07T00:46:05.639Z,100864.78
2019-04-07T00:51:12.383Z,100850.63
2019-04-07T00:56:19.239Z,100861.41
2019-04-07T01:01:26.110Z,100854.64
2019-04-07T01:06:32.817Z,100840.83
2019-04-07T01:11:38.497Z,100845.22
2019-04-07T01:16:44.092Z,100844.02
2019-04-07T01:21:51.153Z,100843.23
2019-04-07T01:26:56.749Z,100827.23
2019-04-07T01:32:03.011Z,100832.16
2019-04-07T01:37:08.761Z,100823.30
2019-04-07T01:42:18.965Z,100825.78
2019-04-07T01:47:26.717Z,100820.31
2019-04-07T01:52:33.978Z,100823.29
2019-04-07T01:57:57.419Z,100823.12
2019-04-07T02:03:19.563Z,100819.36
2019-04-07T02:08:40.225Z,100811.25
2019-04-07T02:14:03.728Z,100810.89
2019-04-07T02:19:15.054Z,100815.12
2019-04-07T02:24:22.318Z,100809.69
2019-04-07T02:29:35.837Z,100807.15
2019-04-07T02:34:44.066Z,100808.42
2019-04-07T02:40:07.773Z,100809.70
2019-04-07T02:45:34.574Z,100816.26
2019-04-07T02:50:41.747Z,100798.77
2019-04-07T02:55:57.785Z,100800.52
2019-04-07T03:01:11.530Z,100804.43
2019-04-07T03:06:37.674Z,100799.38
2019-04-07T03:11:40.409Z,100788.97
2019-04-07T03:16:51.307Z,100791.98
2019-04-07T03:22:11.174Z,100797.33
2019-04-07T03:27:22.074Z,100786.22
2019-04-07T03:32:45.694Z,100798.91
2019-04-07T03:37:57.140Z,100791.05
2019-04-07T03:43:05.540Z,100788.67
2019-04-07T03:48:13.781Z,100792.46
2019-04-07T03:53:37.439Z,100789.72
2019-04-07T03:58:47.541Z,100794.99
2019-04-07T04:04:03.614Z,100787.73
2019-04-07T04:09:28.315Z,100778.81
2019-04-07T04:14:45.368Z,100775.09
2019-04-07T04:19:51.899Z,100769.37
2019-04-07T04:24:57.833Z,100774.81
2019-04-07T04:30:03.286Z,100768.67
2019-04-07T04:35:09.278Z,100770.23
2019-04-07T04:40:15.964Z,100773.05
2019-04-07T04:45:22.390Z,100774.14
2019-04-07T04:50:27.900Z,100770.88
2019-04-07T04:55:33.815Z,100771.49
2019-04-07T05:00:41.194Z,100766.52
2019-04-07T05:05:46.933Z,100779.53
2019-04-07T05:10:52.392Z,100772.02
2019-04-07T05:15:57.875Z,100775.86
2019-04-07T05:21:05.213Z,100770.30
2019-04-07T05:26:10.997Z,100767.12
2019-04-07T05:31:19.904Z,100770.86
2019-04-07T05:36:25.447Z,100775.38
2019-04-07T05:41:31.236Z,100762.09
2019-04-07T05:46:40.126Z,100765.86
2019-04-07T05:51:44.578Z,100765.86
2019-04-07T05:56:50.261Z,100765.50
2019-04-07T06:02:00.685Z,100773.64
2019-04-07T06:07:03.602Z,100773.05
2019-04-07T06:12:09.707Z,100768.77
2019-04-07T06:17:16.263Z,100775.66
2019-04-07T06:22:22.034Z,100778.86
2019-04-07T06:27:29.785Z,100776.94
2019-04-07T06:32:37.571Z,100776.55
2019-04-07T06:37:42.920Z,100777.56
2019-04-07T06:42:48.896Z,100777.70
2019-04-07T06:48:01.214Z,100793.78
2019-04-07T06:53:15.750Z,100797.00
2019-04-07T06:58:20.828Z,100794.67
2019-04-07T07:03:33.537Z,100787.39
2019-04-07T07:08:47.457Z,100795.85
2019-04-07T07:14:03.090Z,100800.05
2019-04-07T07:19:19.537Z,100799.04
2019-04-07T07:24:26.397Z,100806.53
2019-04-07T07:29:32.255Z,100814.13
2019-04-07T07:34:39.877Z,100808.45
2019-04-07T07:39:46.059Z,100814.26
2019-04-07T07:44:52.496Z,100814.51
2019-04-07T07:49:57.686Z,100804.41
2019-04-07T07:55:04.277Z,100809.54
2019-04-07T08:00:10.373Z,100812.97
2019-04-07T08:05:16.037Z,100804.59
2019-04-07T08:10:25.066Z,100804.95
2019-04-07T08:15:32.193Z,100801.48
2019-04-07T08:20:35.909Z,100794.00
2019-04-07T08:25:41.127Z,100805.61
2019-04-07T08:30:47.593Z,100795.14
2019-04-07T08:35:55.268Z,100793.52
2019-04-07T08:41:00.281Z,100797.31
2019-04-07T08:46:06.262Z,100792.08
2019-04-07T08:51:12.021Z,100796.69
2019-04-07T08:56:17.910Z,100797.29
2019-04-07T09:01:23.825Z,100795.98
2019-04-07T09:06:30.269Z,100805.75
2019-04-07T09:11:39.039Z,100806.27
2019-04-07T09:17:02.506Z,100806.36
2019-04-07T09:22:12.835Z,100800.72
2019-04-07T09:27:26.732Z,100796.41
2019-04-07T09:32:51.826Z,100805.83
2019-04-07T09:38:10.982Z,100787.84
2019-04-07T09:43:19.177Z,100789.83
2019-04-07T09:48:27.837Z,100781.97
2019-04-07T09:53:41.495Z,100779.17
2019-04-07T09:59:03.996Z,100781.11
2019-04-07T10:04:12.123Z,100785.63
2019-04-07T10:09:28.737Z,100785.63
2019-04-07T10:14:36.285Z,100783.30
2019-04-07T10:19:43.672Z,100783.63
2019-04-07T10:24:53.669Z,100780.80
2019-04-07T10:30:16.900Z,100777.28
2019-04-07T10:35:40.876Z,100772.03
2019-04-07T10:40:51.334Z,100769.54
2019-04-07T10:45:58.747Z,100763.41
2019-04-07T10:51:15.507Z,100759.76
2019-04-07T10:56:29.473Z,100755.81
2019-04-07T11:01:40.319Z,100758.39
2019-04-07T11:12:28.815Z,100758.17
2019-04-07T11:17:43.558Z,100754.77
2019-04-07T11:22:57.558Z,100747.12
2019-04-07T11:28:05.349Z,100750.00
2019-04-07T11:33:12.822Z,100749.32
2019-04-07T11:38:26.733Z,100747.74
2019-04-07T11:43:40.783Z,100743.80
2019-04-07T11:48:54.824Z,100756.44
2019-04-07T11:54:19.732Z,100757.08
2019-04-07T11:59:27.477Z,100750.25
2019-04-07T12:04:41.643Z,100751.44
2019-04-07T12:10:00.884Z,100748.30
2019-04-07T12:15:22.745Z,100752.03
2019-04-07T12:20:30.060Z,100744.08
2019-04-07T12:25:42.870Z,100751.64
2019-04-07T12:30:50.271Z,100748.91
2019-04-07T12:35:58.652Z,100744.11
2019-04-07T12:41:19.144Z,100746.92
2019-04-07T12:46:21.848Z,100750.47
2019-04-07T12:51:32.913Z,100745.39
2019-04-07T12:56:57.722Z,100747.11
2019-04-07T13:02:07.100Z,100738.33
2019-04-07T13:07:19.405Z,100744.81
2019-04-07T13:12:31.099Z,100740.70
2019-04-07T13:17:41.001Z,100734.97
2019-04-07T13:23:06.179Z,100728.84
2019-04-07T13:28:14.172Z,100733.71
2019-04-07T13:33:29.136Z,100720.02
2019-04-07T13:38:45.848Z,100727.35
2019-04-07T13:44:17.220Z,100718.37
2019-04-07T13:49:41.194Z,100727.43
2019-04-07T13:54:49.296Z,100728.98
2019-04-07T14:00:12.872Z,100730.54
2019-04-07T14:05:21.195Z,100734.31
2019-04-07T14:10:35.221Z,100725.84
2019-04-07T14:15:55.430Z,100732.54
2019-04-07T14:21:11.831Z,100736.42
2019-04-07T14:26:19.081Z,100738.37
2019-04-07T14:31:43.264Z,100740.83
2019-04-07T14:36:50.521Z,100735.66
2019-04-07T14:42:04.927Z,100735.56
2019-04-07T14:47:16.195Z,100727.88
2019-04-07T14:52:36.121Z,100728.19
2019-04-07T14:57:52.470Z,100731.77
2019-04-07T15:02:58.246Z,100737.50
2019-04-07T15:08:16.299Z,100732.62
2019-04-07T15:13:28.200Z,100734.75
2019-04-07T15:18:33.907Z,100730.12
2019-04-07T15:23:40.870Z,100731.18
2019-04-07T15:28:47.195Z,100734.92
2019-04-07T15:33:52.740Z,100739.47
2019-04-07T15:38:58.681Z,100748.23
2019-04-07T15:44:09.044Z,100749.48
2019-04-07T15:49:13.195Z,100758.56
2019-04-07T15:54:22.319Z,100759.54
2019-04-07T15:59:29.400Z,100768.92
2019-04-07T16:04:34.683Z,100771.45
2019-04-07T16:09:50.807Z,100779.50
2019-04-07T16:14:48.099Z,100777.83
2019-04-07T16:19:55.841Z,100779.31
2019-04-07T16:25:01.788Z,100782.05
2019-04-07T16:30:10.319Z,100777.83
2019-04-07T16:35:16.660Z,100777.47
2019-04-07T16:40:23.842Z,100776.64
2019-04-07T16:45:30.430Z,100778.95
2019-04-07T16:50:35.615Z,100788.36
2019-04-07T16:55:46.518Z,100785.56
2019-04-07T17:00:50.709Z,100794.40
2019-04-07T17:05:58.973Z,100804.06
2019-04-07T17:11:06.427Z,100811.41
2019-04-07T17:16:11.927Z,100806.14
2019-04-07T17:21:20.380Z,100812.02
2019-04-07T17:26:26.437Z,100817.14
2019-04-07T17:31:32.617Z,100819.47
2019-04-07T17:36:39.392Z,100822.43
2019-04-07T17:41:48.341Z,100833.87
2019-04-07T17:46:56.718Z,100832.53
2019-04-07T17:52:01.876Z,100840.80
2019-04-07T17:57:23.835Z,100834.95
2019-04-07T18:02:32.625Z,100845.25
2019-04-07T18:07:49.854Z,100846.06
2019-04-07T18:13:12.457Z,100850.01
2019-04-07T18:18:26.336Z,100858.03
2019-04-07T18:23:53.936Z,100861.31
2019-04-07T18:28:59.644Z,100866.83
2019-04-07T18:34:26.974Z,100871.19
2019-04-07T18:39:53.168Z,100874.98
2019-04-07T18:45:12.936Z,100876.52
2019-04-07T18:50:38.417Z,100880.24
2019-04-07T18:56:03.451Z,100881.92
2019-04-07T19:01:13.693Z,100886.16
2019-04-07T19:06:23.696Z,100882.86
2019-04-07T19:11:34.175Z,100886.23
2019-04-07T19:16:57.224Z,100886.57
2019-04-07T19:22:06.718Z,100877.23
2019-04-07T19:27:25.395Z,100887.23
2019-04-07T19:32:37.282Z,100876.65
2019-04-07T19:37:48.312Z,100882.70
2019-04-07T19:42:58.121Z,100879.25
2019-04-07T19:48:08.354Z,100879.23
2019-04-07T19:53:31.034Z,100878.22
2019-04-07T19:58:53.455Z,100871.23
2019-04-07T20:04:00.279Z,100873.83
2019-04-07T20:09:15.401Z,100875.13
2019-04-07T20:14:28.514Z,100872.37
2019-04-07T20:19:52.180Z,100879.62
2019-04-07T20:25:17.587Z,100877.13
2019-04-07T20:30:36.039Z,100872.47
2019-04-07T20:35:46.736Z,100881.08
2019-04-07T20:40:53.770Z,100876.78
2019-04-07T20:46:17.045Z,100904.34
2019-04-07T20:51:39.743Z,100902.28
2019-04-07T20:56:49.814Z,100900.53
2019-04-07T21:02:07.503Z,100894.34
2019-04-07T21:07:15.174Z,100893.86
2019-04-07T21:12:38.988Z,100882.90
2019-04-07T21:17:52.427Z,100890.27
2019-04-07T21:23:05.641Z,100886.61
2019-04-07T21:28:18.640Z,100884.16
2019-04-07T21:33:34.639Z,100876.78
2019-04-07T21:38:45.358Z,100881.70
2019-04-07T21:44:08.063Z,100881.17
2019-04-07T21:49:20.992Z,100884.47
2019-04-07T21:54:28.151Z,100883.78
2019-04-07T21:59:35.423Z,100885.13
2019-04-07T22:04:45.769Z,100889.46
2019-04-07T22:09:55.303Z,100884.84
2019-04-07T22:15:00.426Z,100881.59
2019-04-07T22:20:08.511Z,100882.63
2019-04-07T22:25:17.409Z,100879.08
2019-04-07T22:30:24.131Z,100881.47
2019-04-07T22:35:29.524Z,100882.96
2019-04-07T22:40:38.784Z,100869.92
2019-04-07T22:45:52.695Z,100870.63
2019-04-07T22:50:49.607Z,100867.44
2019-04-07T22:55:54.821Z,100868.38
2019-04-07T23:01:00.708Z,100871.39
2019-04-07T23:06:06.430Z,100867.85
2019-04-07T23:11:12.857Z,100862.97
2019-04-07T23:16:20.220Z,100868.97
2019-04-07T23:21:27.869Z,100866.59
2019-04-07T23:26:34.311Z,100864.55
2019-04-07T23:31:40.433Z,100868.68
2019-04-07T23:36:45.913Z,100865.05
2019-04-07T23:41:51.669Z,100869.06
2019-04-07T23:46:57.184Z,100877.37
2019-04-07T23:52:02.742Z,100883.43
2019-04-07T23:57:08.316Z,100875.23
